sensor_id;sensor_type;location;lat;lon;timestamp;P1;durP1;ratioP1;P2;durP2;ratioP2
35839;SDS011;35514;50.504;30.500;2023-05-10T00:02:11;7.07;;;3.20;;
35839;SDS011;35514;50.504;30.500;2023-05-10T00:04:42;10.70;;;3.63;;
35839;SDS011;35514;50.504;30.500;2023-05-10T00:07:09;10.30;;;3.22;;
35839;SDS011;35514;50.504;30.500;2023-05-10T00:09:37;6.50;;;2.80;;
35839;SDS011;35514;50.504;30.500;2023-05-10T00:12:05;9.43;;;3.30;;
35839;SDS011;35514;50.504;30.500;2023-05-10T00:14:32;7.80;;;2.80;;
35839;SDS011;35514;50.504;30.500;2023-05-10T00:17:00;7.25;;;3.30;;
35839;SDS011;35514;50.504;30.500;2023-05-10T00:19:29;7.55;;;2.88;;
35839;SDS011;35514;50.504;30.500;2023-05-10T00:21:58;10.18;;;3.55;;
35839;SDS011;35514;50.504;30.500;2023-05-10T00:24:25;8.85;;;2.83;;
35839;SDS011;35514;50.504;30.500;2023-05-10T00:26:53;5.43;;;2.70;;
35839;SDS011;35514;50.504;30.500;2023-05-10T00:29:20;6.65;;;3.05;;
35839;SDS011;35514;50.504;30.500;2023-05-10T00:31:48;7.03;;;2.65;;
35839;SDS011;35514;50.504;30.500;2023-05-10T00:34:15;9.00;;;3.28;;
35839;SDS011;35514;50.504;30.500;2023-05-10T00:36:43;7.60;;;2.75;;
35839;SDS011;35514;50.504;30.500;2023-05-10T00:39:12;6.63;;;3.47;;
35839;SDS011;35514;50.504;30.500;2023-05-10T00:41:40;5.45;;;2.92;;
35839;SDS011;35514;50.504;30.500;2023-05-10T00:44:07;8.35;;;2.88;;
35839;SDS011;35514;50.504;30.500;2023-05-10T00:46:35;6.57;;;3.53;;
35839;SDS011;35514;50.504;30.500;2023-05-10T00:49:03;4.70;;;2.80;;
35839;SDS011;35514;50.504;30.500;2023-05-10T00:51:31;7.68;;;3.40;;
35839;SDS011;35514;50.504;30.500;2023-05-10T00:53:58;6.85;;;2.70;;
35839;SDS011;35514;50.504;30.500;2023-05-10T00:56:27;7.03;;;3.00;;
35839;SDS011;35514;50.504;30.500;2023-05-10T00:58:56;7.20;;;2.80;;
35839;SDS011;35514;50.504;30.500;2023-05-10T01:01:23;6.15;;;3.03;;
35839;SDS011;35514;50.504;30.500;2023-05-10T01:03:51;8.93;;;4.30;;
35839;SDS011;35514;50.504;30.500;2023-05-10T01:06:19;9.65;;;3.75;;
35839;SDS011;35514;50.504;30.500;2023-05-10T01:08:47;4.63;;;2.67;;
35839;SDS011;35514;50.504;30.500;2023-05-10T01:11:14;6.22;;;3.10;;
35839;SDS011;35514;50.504;30.500;2023-05-10T01:13:43;15.30;;;4.63;;
35839;SDS011;35514;50.504;30.500;2023-05-10T01:16:12;6.78;;;3.00;;
35839;SDS011;35514;50.504;30.500;2023-05-10T01:18:40;7.00;;;2.88;;
35839;SDS011;35514;50.504;30.500;2023-05-10T01:21:18;6.47;;;3.15;;
35839;SDS011;35514;50.504;30.500;2023-05-10T01:23:55;5.90;;;3.17;;
35839;SDS011;35514;50.504;30.500;2023-05-10T01:26:39;4.18;;;2.42;;
35839;SDS011;35514;50.504;30.500;2023-05-10T01:29:17;5.80;;;2.90;;
35839;SDS011;35514;50.504;30.500;2023-05-10T01:34:34;6.53;;;3.47;;
35839;SDS011;35514;50.504;30.500;2023-05-10T01:37:02;6.03;;;3.20;;
35839;SDS011;35514;50.504;30.500;2023-05-10T01:39:32;5.65;;;2.97;;
35839;SDS011;35514;50.504;30.500;2023-05-10T01:42:05;5.25;;;3.05;;
35839;SDS011;35514;50.504;30.500;2023-05-10T01:44:35;8.18;;;3.10;;
35839;SDS011;35514;50.504;30.500;2023-05-10T01:47:05;4.63;;;2.65;;
35839;SDS011;35514;50.504;30.500;2023-05-10T01:49:36;8.70;;;3.22;;
35839;SDS011;35514;50.504;30.500;2023-05-10T01:52:06;10.13;;;3.20;;
35839;SDS011;35514;50.504;30.500;2023-05-10T01:54:35;6.05;;;2.92;;
35839;SDS011;35514;50.504;30.500;2023-05-10T01:57:06;6.95;;;3.00;;
35839;SDS011;35514;50.504;30.500;2023-05-10T01:59:35;8.70;;;3.28;;
35839;SDS011;35514;50.504;30.500;2023-05-10T02:02:07;4.32;;;2.60;;
35839;SDS011;35514;50.504;30.500;2023-05-10T02:04:39;5.18;;;2.60;;
35839;SDS011;35514;50.504;30.500;2023-05-10T02:07:07;5.25;;;2.97;;
35839;SDS011;35514;50.504;30.500;2023-05-10T02:09:36;3.92;;;2.60;;
35839;SDS011;35514;50.504;30.500;2023-05-10T02:12:04;7.63;;;3.35;;
35839;SDS011;35514;50.504;30.500;2023-05-10T02:14:34;4.68;;;2.83;;
35839;SDS011;35514;50.504;30.500;2023-05-10T02:17:02;3.65;;;2.58;;
35839;SDS011;35514;50.504;30.500;2023-05-10T02:19:31;5.70;;;2.67;;
35839;SDS011;35514;50.504;30.500;2023-05-10T02:22:00;5.90;;;2.95;;
35839;SDS011;35514;50.504;30.500;2023-05-10T02:24:29;5.43;;;2.38;;
35839;SDS011;35514;50.504;30.500;2023-05-10T02:26:57;6.50;;;2.97;;
35839;SDS011;35514;50.504;30.500;2023-05-10T02:29:25;3.65;;;2.67;;
35839;SDS011;35514;50.504;30.500;2023-05-10T02:31:54;7.07;;;3.05;;
35839;SDS011;35514;50.504;30.500;2023-05-10T02:34:22;15.05;;;4.60;;
35839;SDS011;35514;50.504;30.500;2023-05-10T02:36:50;7.10;;;2.70;;
35839;SDS011;35514;50.504;30.500;2023-05-10T02:39:19;7.18;;;3.17;;
35839;SDS011;35514;50.504;30.500;2023-05-10T02:41:48;5.25;;;3.30;;
35839;SDS011;35514;50.504;30.500;2023-05-10T02:44:17;7.10;;;3.13;;
35839;SDS011;35514;50.504;30.500;2023-05-10T02:46:46;7.47;;;2.95;;
35839;SDS011;35514;50.504;30.500;2023-05-10T02:49:14;9.60;;;4.05;;
35839;SDS011;35514;50.504;30.500;2023-05-10T02:51:44;6.47;;;3.50;;
35839;SDS011;35514;50.504;30.500;2023-05-10T02:54:15;9.85;;;3.30;;
35839;SDS011;35514;50.504;30.500;2023-05-10T02:56:49;4.40;;;2.70;;
35839;SDS011;35514;50.504;30.500;2023-05-10T02:59:17;10.38;;;2.88;;
35839;SDS011;35514;50.504;30.500;2023-05-10T03:01:45;6.65;;;3.20;;
35839;SDS011;35514;50.504;30.500;2023-05-10T03:04:13;6.93;;;3.55;;
35839;SDS011;35514;50.504;30.500;2023-05-10T03:06:41;4.90;;;2.50;;
35839;SDS011;35514;50.504;30.500;2023-05-10T03:09:09;6.07;;;3.10;;
35839;SDS011;35514;50.504;30.500;2023-05-10T03:11:43;6.35;;;3.00;;
35839;SDS011;35514;50.504;30.500;2023-05-10T03:14:21;8.05;;;3.20;;
35839;SDS011;35514;50.504;30.500;2023-05-10T03:16:52;8.25;;;3.13;;
35839;SDS011;35514;50.504;30.500;2023-05-10T03:19:24;10.93;;;3.08;;
35839;SDS011;35514;50.504;30.500;2023-05-10T03:21:53;5.68;;;2.92;;
35839;SDS011;35514;50.504;30.500;2023-05-10T03:24:23;10.80;;;3.10;;
35839;SDS011;35514;50.504;30.500;2023-05-10T03:26:53;5.55;;;3.33;;
35839;SDS011;35514;50.504;30.500;2023-05-10T03:29:23;6.28;;;3.03;;
35839;SDS011;35514;50.504;30.500;2023-05-10T03:31:52;9.43;;;2.67;;
35839;SDS011;35514;50.504;30.500;2023-05-10T03:34:23;8.27;;;3.97;;
35839;SDS011;35514;50.504;30.500;2023-05-10T03:36:50;7.65;;;2.78;;
35839;SDS011;35514;50.504;30.500;2023-05-10T03:39:18;5.97;;;2.90;;
35839;SDS011;35514;50.504;30.500;2023-05-10T03:41:47;4.68;;;2.67;;
35839;SDS011;35514;50.504;30.500;2023-05-10T03:44:14;6.90;;;2.80;;
35839;SDS011;35514;50.504;30.500;2023-05-10T03:46:44;10.77;;;3.67;;
35839;SDS011;35514;50.504;30.500;2023-05-10T03:49:11;12.38;;;3.25;;
35839;SDS011;35514;50.504;30.500;2023-05-10T03:51:39;6.13;;;3.05;;
35839;SDS011;35514;50.504;30.500;2023-05-10T03:54:07;8.15;;;3.35;;
35839;SDS011;35514;50.504;30.500;2023-05-10T03:56:34;7.60;;;3.10;;
35839;SDS011;35514;50.504;30.500;2023-05-10T03:59:02;9.93;;;3.00;;
35839;SDS011;35514;50.504;30.500;2023-05-10T04:01:33;6.25;;;2.88;;
35839;SDS011;35514;50.504;30.500;2023-05-10T04:04:02;7.95;;;3.10;;
35839;SDS011;35514;50.504;30.500;2023-05-10T04:06:30;11.73;;;2.80;;
35839;SDS011;35514;50.504;30.500;2023-05-10T04:08:58;5.30;;;2.85;;
35839;SDS011;35514;50.504;30.500;2023-05-10T04:11:30;7.65;;;2.30;;
35839;SDS011;35514;50.504;30.500;2023-05-10T04:13:57;6.72;;;3.20;;
35839;SDS011;35514;50.504;30.500;2023-05-10T04:16:25;6.85;;;2.75;;
35839;SDS011;35514;50.504;30.500;2023-05-10T04:18:52;8.27;;;2.90;;
35839;SDS011;35514;50.504;30.500;2023-05-10T04:21:21;4.95;;;2.97;;
35839;SDS011;35514;50.504;30.500;2023-05-10T04:23:49;4.05;;;2.45;;
35839;SDS011;35514;50.504;30.500;2023-05-10T04:26:17;8.30;;;2.92;;
35839;SDS011;35514;50.504;30.500;2023-05-10T04:28:44;6.05;;;2.47;;
35839;SDS011;35514;50.504;30.500;2023-05-10T04:31:12;3.67;;;2.22;;
35839;SDS011;35514;50.504;30.500;2023-05-10T04:33:39;8.98;;;2.45;;
35839;SDS011;35514;50.504;30.500;2023-05-10T04:36:07;4.90;;;2.38;;
35839;SDS011;35514;50.504;30.500;2023-05-10T04:38:36;3.97;;;2.47;;
35839;SDS011;35514;50.504;30.500;2023-05-10T04:41:04;7.60;;;2.53;;
35839;SDS011;35514;50.504;30.500;2023-05-10T04:43:32;6.38;;;2.33;;
35839;SDS011;35514;50.504;30.500;2023-05-10T04:46:00;5.78;;;3.00;;
35839;SDS011;35514;50.504;30.500;2023-05-10T04:48:27;10.88;;;2.30;;
35839;SDS011;35514;50.504;30.500;2023-05-10T04:50:55;14.45;;;3.03;;
35839;SDS011;35514;50.504;30.500;2023-05-10T04:53:23;4.18;;;2.47;;
35839;SDS011;35514;50.504;30.500;2023-05-10T04:55:52;14.50;;;3.28;;
35839;SDS011;35514;50.504;30.500;2023-05-10T04:58:19;5.40;;;2.10;;
35839;SDS011;35514;50.504;30.500;2023-05-10T05:00:47;5.57;;;2.20;;
35839;SDS011;35514;50.504;30.500;2023-05-10T05:03:15;10.27;;;2.90;;
35839;SDS011;35514;50.504;30.500;2023-05-10T05:05:43;4.20;;;2.00;;
35839;SDS011;35514;50.504;30.500;2023-05-10T05:08:10;6.95;;;2.42;;
35839;SDS011;35514;50.504;30.500;2023-05-10T05:10:39;4.63;;;2.67;;
35839;SDS011;35514;50.504;30.500;2023-05-10T05:13:07;4.75;;;2.15;;
35839;SDS011;35514;50.504;30.500;2023-05-10T05:15:35;11.68;;;2.40;;
35839;SDS011;35514;50.504;30.500;2023-05-10T05:18:03;7.00;;;2.58;;
35839;SDS011;35514;50.504;30.500;2023-05-10T05:20:31;6.88;;;2.92;;
35839;SDS011;35514;50.504;30.500;2023-05-10T05:22:59;6.30;;;2.53;;
35839;SDS011;35514;50.504;30.500;2023-05-10T05:25:27;8.65;;;3.08;;
35839;SDS011;35514;50.504;30.500;2023-05-10T05:27:55;8.23;;;2.92;;
35839;SDS011;35514;50.504;30.500;2023-05-10T05:30:23;5.60;;;2.40;;
35839;SDS011;35514;50.504;30.500;2023-05-10T05:32:51;9.50;;;2.22;;
35839;SDS011;35514;50.504;30.500;2023-05-10T05:35:19;7.50;;;2.83;;
35839;SDS011;35514;50.504;30.500;2023-05-10T05:37:46;5.35;;;2.75;;
35839;SDS011;35514;50.504;30.500;2023-05-10T05:40:14;4.00;;;1.77;;
35839;SDS011;35514;50.504;30.500;2023-05-10T05:42:42;9.25;;;2.17;;
35839;SDS011;35514;50.504;30.500;2023-05-10T05:45:09;4.43;;;2.20;;
35839;SDS011;35514;50.504;30.500;2023-05-10T05:47:40;3.80;;;2.38;;
35839;SDS011;35514;50.504;30.500;2023-05-10T05:50:09;4.07;;;1.95;;
35839;SDS011;35514;50.504;30.500;2023-05-10T05:52:37;3.47;;;1.70;;
35839;SDS011;35514;50.504;30.500;2023-05-10T05:55:04;5.28;;;2.05;;
35839;SDS011;35514;50.504;30.500;2023-05-10T05:57:32;2.80;;;1.75;;
35839;SDS011;35514;50.504;30.500;2023-05-10T05:59:59;5.50;;;2.28;;
35839;SDS011;35514;50.504;30.500;2023-05-10T06:02:27;6.88;;;2.10;;
35839;SDS011;35514;50.504;30.500;2023-05-10T06:04:56;8.30;;;2.58;;
35839;SDS011;35514;50.504;30.500;2023-05-10T06:07:24;2.75;;;1.83;;
35839;SDS011;35514;50.504;30.500;2023-05-10T06:09:51;3.80;;;2.17;;
35839;SDS011;35514;50.504;30.500;2023-05-10T06:12:19;5.10;;;2.80;;
35839;SDS011;35514;50.504;30.500;2023-05-10T06:14:46;4.70;;;2.33;;
35839;SDS011;35514;50.504;30.500;2023-05-10T06:17:14;6.88;;;2.20;;
35839;SDS011;35514;50.504;30.500;2023-05-10T06:19:43;4.78;;;2.28;;
35839;SDS011;35514;50.504;30.500;2023-05-10T06:22:11;7.35;;;2.40;;
35839;SDS011;35514;50.504;30.500;2023-05-10T06:24:39;7.35;;;2.05;;
35839;SDS011;35514;50.504;30.500;2023-05-10T06:27:07;4.88;;;1.92;;
35839;SDS011;35514;50.504;30.500;2023-05-10T06:29:35;4.78;;;2.25;;
35839;SDS011;35514;50.504;30.500;2023-05-10T06:32:03;7.05;;;1.90;;
35839;SDS011;35514;50.504;30.500;2023-05-10T06:34:30;8.63;;;3.05;;
35839;SDS011;35514;50.504;30.500;2023-05-10T06:36:58;4.70;;;2.05;;
35839;SDS011;35514;50.504;30.500;2023-05-10T06:39:27;8.25;;;2.30;;
35839;SDS011;35514;50.504;30.500;2023-05-10T06:41:55;3.88;;;2.10;;
35839;SDS011;35514;50.504;30.500;2023-05-10T06:44:23;4.97;;;1.88;;
35839;SDS011;35514;50.504;30.500;2023-05-10T06:46:50;5.95;;;2.00;;
35839;SDS011;35514;50.504;30.500;2023-05-10T06:49:19;3.92;;;2.00;;
35839;SDS011;35514;50.504;30.500;2023-05-10T06:51:47;8.52;;;2.10;;
35839;SDS011;35514;50.504;30.500;2023-05-10T06:54:15;3.95;;;1.83;;
35839;SDS011;35514;50.504;30.500;2023-05-10T06:56:44;2.53;;;1.75;;
35839;SDS011;35514;50.504;30.500;2023-05-10T06:59:12;6.47;;;2.33;;
35839;SDS011;35514;50.504;30.500;2023-05-10T07:01:39;4.03;;;1.80;;
35839;SDS011;35514;50.504;30.500;2023-05-10T07:04:07;3.40;;;1.65;;
35839;SDS011;35514;50.504;30.500;2023-05-10T07:06:35;3.60;;;1.83;;
35839;SDS011;35514;50.504;30.500;2023-05-10T07:09:03;4.68;;;1.55;;
35839;SDS011;35514;50.504;30.500;2023-05-10T07:11:30;5.82;;;1.95;;
35839;SDS011;35514;50.504;30.500;2023-05-10T07:13:59;5.55;;;2.10;;
35839;SDS011;35514;50.504;30.500;2023-05-10T07:16:26;5.00;;;2.10;;
35839;SDS011;35514;50.504;30.500;2023-05-10T07:18:54;2.50;;;1.80;;
35839;SDS011;35514;50.504;30.500;2023-05-10T07:21:22;3.33;;;1.83;;
35839;SDS011;35514;50.504;30.500;2023-05-10T07:23:50;3.13;;;1.70;;
35839;SDS011;35514;50.504;30.500;2023-05-10T07:26:21;4.97;;;1.70;;
35839;SDS011;35514;50.504;30.500;2023-05-10T07:28:48;3.40;;;1.80;;
35839;SDS011;35514;50.504;30.500;2023-05-10T07:31:17;6.93;;;1.80;;
35839;SDS011;35514;50.504;30.500;2023-05-10T07:33:45;6.97;;;1.30;;
35839;SDS011;35514;50.504;30.500;2023-05-10T07:36:12;3.80;;;1.83;;
35839;SDS011;35514;50.504;30.500;2023-05-10T07:38:40;5.22;;;1.52;;
35839;SDS011;35514;50.504;30.500;2023-05-10T07:41:08;4.95;;;1.70;;
35839;SDS011;35514;50.504;30.500;2023-05-10T07:43:35;3.50;;;1.55;;
35839;SDS011;35514;50.504;30.500;2023-05-10T07:46:03;4.82;;;1.70;;
35839;SDS011;35514;50.504;30.500;2023-05-10T07:48:33;4.78;;;1.55;;
35839;SDS011;35514;50.504;30.500;2023-05-10T07:51:00;2.80;;;1.38;;
35839;SDS011;35514;50.504;30.500;2023-05-10T07:53:28;2.80;;;1.50;;
35839;SDS011;35514;50.504;30.500;2023-05-10T07:55:57;3.65;;;1.40;;
35839;SDS011;35514;50.504;30.500;2023-05-10T07:58:25;2.45;;;1.50;;
35839;SDS011;35514;50.504;30.500;2023-05-10T08:00:52;3.55;;;1.30;;
35839;SDS011;35514;50.504;30.500;2023-05-10T08:03:20;5.85;;;1.80;;
35839;SDS011;35514;50.504;30.500;2023-05-10T08:05:49;17.70;;;4.28;;
35839;SDS011;35514;50.504;30.500;2023-05-10T08:08:16;3.30;;;1.90;;
35839;SDS011;35514;50.504;30.500;2023-05-10T08:10:44;3.45;;;1.52;;
35839;SDS011;35514;50.504;30.500;2023-05-10T08:13:11;2.95;;;1.80;;
35839;SDS011;35514;50.504;30.500;2023-05-10T08:15:39;1.70;;;1.35;;
35839;SDS011;35514;50.504;30.500;2023-05-10T08:18:06;3.85;;;1.58;;
35839;SDS011;35514;50.504;30.500;2023-05-10T08:20:34;5.05;;;1.45;;
35839;SDS011;35514;50.504;30.500;2023-05-10T08:23:03;4.45;;;1.48;;
35839;SDS011;35514;50.504;30.500;2023-05-10T08:25:31;10.50;;;3.38;;
35839;SDS011;35514;50.504;30.500;2023-05-10T08:27:58;6.00;;;1.90;;
35839;SDS011;35514;50.504;30.500;2023-05-10T08:30:26;3.53;;;1.55;;
35839;SDS011;35514;50.504;30.500;2023-05-10T08:32:54;8.38;;;2.42;;
35839;SDS011;35514;50.504;30.500;2023-05-10T08:35:21;4.18;;;1.58;;
35839;SDS011;35514;50.504;30.500;2023-05-10T08:37:50;4.20;;;1.95;;
35839;SDS011;35514;50.504;30.500;2023-05-10T08:40:19;3.05;;;1.77;;
35839;SDS011;35514;50.504;30.500;2023-05-10T08:42:48;4.93;;;1.77;;
35839;SDS011;35514;50.504;30.500;2023-05-10T08:45:18;2.55;;;1.20;;
35839;SDS011;35514;50.504;30.500;2023-05-10T08:47:47;6.43;;;1.83;;
35839;SDS011;35514;50.504;30.500;2023-05-10T08:50:14;3.65;;;1.92;;
35839;SDS011;35514;50.504;30.500;2023-05-10T08:52:42;6.82;;;2.50;;
35839;SDS011;35514;50.504;30.500;2023-05-10T08:55:11;3.53;;;1.42;;
35839;SDS011;35514;50.504;30.500;2023-05-10T08:57:43;5.28;;;1.92;;
35839;SDS011;35514;50.504;30.500;2023-05-10T09:00:11;3.70;;;1.70;;
35839;SDS011;35514;50.504;30.500;2023-05-10T09:02:39;3.78;;;1.58;;
35839;SDS011;35514;50.504;30.500;2023-05-10T09:05:07;6.03;;;1.95;;
35839;SDS011;35514;50.504;30.500;2023-05-10T09:07:36;6.20;;;2.22;;
35839;SDS011;35514;50.504;30.500;2023-05-10T09:10:04;3.45;;;1.63;;
35839;SDS011;35514;50.504;30.500;2023-05-10T09:12:31;6.28;;;1.70;;
35839;SDS011;35514;50.504;30.500;2023-05-10T09:15:00;2.58;;;1.30;;
35839;SDS011;35514;50.504;30.500;2023-05-10T09:17:28;3.08;;;1.80;;
35839;SDS011;35514;50.504;30.500;2023-05-10T09:19:57;5.97;;;1.70;;
35839;SDS011;35514;50.504;30.500;2023-05-10T09:22:25;6.53;;;1.75;;
35839;SDS011;35514;50.504;30.500;2023-05-10T09:25:03;10.32;;;1.75;;
35839;SDS011;35514;50.504;30.500;2023-05-10T09:27:30;1.90;;;1.30;;
35839;SDS011;35514;50.504;30.500;2023-05-10T09:29:58;3.50;;;1.77;;
35839;SDS011;35514;50.504;30.500;2023-05-10T09:32:36;2.88;;;2.05;;
35839;SDS011;35514;50.504;30.500;2023-05-10T09:35:06;4.13;;;2.25;;
35839;SDS011;35514;50.504;30.500;2023-05-10T09:37:33;5.22;;;2.67;;
35839;SDS011;35514;50.504;30.500;2023-05-10T09:40:03;5.30;;;2.05;;
35839;SDS011;35514;50.504;30.500;2023-05-10T09:42:31;4.88;;;1.80;;
35839;SDS011;35514;50.504;30.500;2023-05-10T09:45:00;4.47;;;2.22;;
35839;SDS011;35514;50.504;30.500;2023-05-10T09:47:27;5.18;;;1.60;;
35839;SDS011;35514;50.504;30.500;2023-05-10T09:49:56;8.02;;;2.17;;
35839;SDS011;35514;50.504;30.500;2023-05-10T09:52:29;9.00;;;1.85;;
35839;SDS011;35514;50.504;30.500;2023-05-10T09:54:57;2.35;;;1.42;;
35839;SDS011;35514;50.504;30.500;2023-05-10T09:57:25;4.05;;;1.80;;
35839;SDS011;35514;50.504;30.500;2023-05-10T09:59:53;3.83;;;1.98;;
35839;SDS011;35514;50.504;30.500;2023-05-10T10:02:21;5.60;;;1.90;;
35839;SDS011;35514;50.504;30.500;2023-05-10T10:04:56;2.60;;;1.73;;
35839;SDS011;35514;50.504;30.500;2023-05-10T10:07:24;6.13;;;2.00;;
35839;SDS011;35514;50.504;30.500;2023-05-10T10:09:52;2.53;;;1.75;;
35839;SDS011;35514;50.504;30.500;2023-05-10T10:12:20;2.88;;;1.70;;
35839;SDS011;35514;50.504;30.500;2023-05-10T10:14:48;3.67;;;2.00;;
35839;SDS011;35514;50.504;30.500;2023-05-10T10:17:16;5.40;;;1.70;;
35839;SDS011;35514;50.504;30.500;2023-05-10T10:19:44;3.17;;;2.40;;
35839;SDS011;35514;50.504;30.500;2023-05-10T10:22:14;2.65;;;1.42;;
35839;SDS011;35514;50.504;30.500;2023-05-10T10:24:41;3.17;;;1.80;;
35839;SDS011;35514;50.504;30.500;2023-05-10T10:27:13;6.50;;;2.05;;
35839;SDS011;35514;50.504;30.500;2023-05-10T10:29:47;7.32;;;2.22;;
35839;SDS011;35514;50.504;30.500;2023-05-10T10:32:19;3.17;;;1.77;;
35839;SDS011;35514;50.504;30.500;2023-05-10T10:34:48;3.22;;;1.60;;
35839;SDS011;35514;50.504;30.500;2023-05-10T10:37:17;2.88;;;1.58;;
35839;SDS011;35514;50.504;30.500;2023-05-10T10:39:44;2.90;;;1.60;;
35839;SDS011;35514;50.504;30.500;2023-05-10T10:42:15;7.43;;;1.95;;
35839;SDS011;35514;50.504;30.500;2023-05-10T10:45:11;5.15;;;1.95;;
35839;SDS011;35514;50.504;30.500;2023-05-10T10:47:42;7.05;;;1.63;;
35839;SDS011;35514;50.504;30.500;2023-05-10T10:50:11;4.20;;;2.22;;
35839;SDS011;35514;50.504;30.500;2023-05-10T10:52:41;3.05;;;1.90;;
35839;SDS011;35514;50.504;30.500;2023-05-10T10:55:10;6.13;;;2.00;;
35839;SDS011;35514;50.504;30.500;2023-05-10T10:57:47;4.57;;;1.77;;
35839;SDS011;35514;50.504;30.500;2023-05-10T11:00:18;4.00;;;2.30;;
35839;SDS011;35514;50.504;30.500;2023-05-10T11:02:47;2.95;;;2.03;;
35839;SDS011;35514;50.504;30.500;2023-05-10T11:08:15;7.10;;;2.00;;
35839;SDS011;35514;50.504;30.500;2023-05-10T11:10:51;5.00;;;1.77;;
35839;SDS011;35514;50.504;30.500;2023-05-10T11:13:26;4.32;;;1.70;;
35839;SDS011;35514;50.504;30.500;2023-05-10T11:15:54;4.05;;;1.83;;
35839;SDS011;35514;50.504;30.500;2023-05-10T11:18:26;3.75;;;1.90;;
35839;SDS011;35514;50.504;30.500;2023-05-10T11:20:56;5.57;;;1.63;;
35839;SDS011;35514;50.504;30.500;2023-05-10T11:23:28;6.00;;;1.85;;
35839;SDS011;35514;50.504;30.500;2023-05-10T11:25:56;3.67;;;1.65;;
35839;SDS011;35514;50.504;30.500;2023-05-10T11:28:26;6.20;;;1.85;;
35839;SDS011;35514;50.504;30.500;2023-05-10T11:30:54;3.40;;;1.60;;
35839;SDS011;35514;50.504;30.500;2023-05-10T11:33:21;3.90;;;1.67;;
35839;SDS011;35514;50.504;30.500;2023-05-10T11:35:49;3.10;;;1.52;;
35839;SDS011;35514;50.504;30.500;2023-05-10T11:38:17;4.60;;;1.70;;
35839;SDS011;35514;50.504;30.500;2023-05-10T11:40:46;2.35;;;1.63;;
35839;SDS011;35514;50.504;30.500;2023-05-10T11:43:13;8.18;;;1.70;;
35839;SDS011;35514;50.504;30.500;2023-05-10T11:45:41;2.83;;;1.40;;
35839;SDS011;35514;50.504;30.500;2023-05-10T11:48:09;5.10;;;1.70;;
35839;SDS011;35514;50.504;30.500;2023-05-10T11:50:37;5.38;;;2.15;;
35839;SDS011;35514;50.504;30.500;2023-05-10T11:53:05;4.85;;;1.65;;
35839;SDS011;35514;50.504;30.500;2023-05-10T11:55:33;3.70;;;1.55;;
35839;SDS011;35514;50.504;30.500;2023-05-10T11:58:02;3.47;;;1.55;;
35839;SDS011;35514;50.504;30.500;2023-05-10T12:00:30;5.65;;;1.95;;
35839;SDS011;35514;50.504;30.500;2023-05-10T12:03:00;2.83;;;1.63;;
35839;SDS011;35514;50.504;30.500;2023-05-10T12:05:31;8.00;;;2.22;;
35839;SDS011;35514;50.504;30.500;2023-05-10T12:08:11;3.90;;;1.90;;
35839;SDS011;35514;50.504;30.500;2023-05-10T12:10:38;3.35;;;1.50;;
35839;SDS011;35514;50.504;30.500;2023-05-10T12:13:11;3.88;;;1.75;;
35839;SDS011;35514;50.504;30.500;2023-05-10T12:18:08;5.85;;;1.60;;
35839;SDS011;35514;50.504;30.500;2023-05-10T12:20:36;5.63;;;2.00;;
35839;SDS011;35514;50.504;30.500;2023-05-10T12:23:04;8.48;;;1.70;;
35839;SDS011;35514;50.504;30.500;2023-05-10T12:25:32;3.38;;;2.08;;
35839;SDS011;35514;50.504;30.500;2023-05-10T12:28:02;3.60;;;1.45;;
35839;SDS011;35514;50.504;30.500;2023-05-10T12:30:32;3.60;;;1.70;;
35839;SDS011;35514;50.504;30.500;2023-05-10T12:33:00;3.70;;;1.35;;
35839;SDS011;35514;50.504;30.500;2023-05-10T12:35:30;4.47;;;1.95;;
35839;SDS011;35514;50.504;30.500;2023-05-10T12:37:57;3.58;;;1.95;;
35839;SDS011;35514;50.504;30.500;2023-05-10T12:40:25;2.75;;;1.60;;
35839;SDS011;35514;50.504;30.500;2023-05-10T12:42:53;6.43;;;1.60;;
35839;SDS011;35514;50.504;30.500;2023-05-10T12:45:20;3.03;;;1.50;;
35839;SDS011;35514;50.504;30.500;2023-05-10T12:47:50;6.35;;;2.38;;
35839;SDS011;35514;50.504;30.500;2023-05-10T12:50:18;3.88;;;1.80;;
35839;SDS011;35514;50.504;30.500;2023-05-10T12:52:45;3.08;;;1.40;;
35839;SDS011;35514;50.504;30.500;2023-05-10T12:55:13;3.15;;;1.70;;
35839;SDS011;35514;50.504;30.500;2023-05-10T12:57:41;3.03;;;1.67;;
35839;SDS011;35514;50.504;30.500;2023-05-10T13:00:09;2.20;;;1.30;;
35839;SDS011;35514;50.504;30.500;2023-05-10T13:02:37;4.30;;;1.65;;
35839;SDS011;35514;50.504;30.500;2023-05-10T13:05:06;4.45;;;1.42;;
35839;SDS011;35514;50.504;30.500;2023-05-10T13:07:34;3.95;;;1.25;;
35839;SDS011;35514;50.504;30.500;2023-05-10T13:10:02;7.82;;;1.60;;
35839;SDS011;35514;50.504;30.500;2023-05-10T13:12:30;7.32;;;1.35;;
35839;SDS011;35514;50.504;30.500;2023-05-10T13:14:58;2.50;;;1.60;;
35839;SDS011;35514;50.504;30.500;2023-05-10T13:17:25;5.03;;;1.60;;
35839;SDS011;35514;50.504;30.500;2023-05-10T13:19:53;4.18;;;1.90;;
35839;SDS011;35514;50.504;30.500;2023-05-10T13:22:22;12.90;;;3.45;;
35839;SDS011;35514;50.504;30.500;2023-05-10T13:25:05;4.47;;;1.90;;
35839;SDS011;35514;50.504;30.500;2023-05-10T13:27:32;5.38;;;1.95;;
35839;SDS011;35514;50.504;30.500;2023-05-10T13:30:00;6.80;;;2.05;;
35839;SDS011;35514;50.504;30.500;2023-05-10T13:32:29;3.55;;;1.70;;
35839;SDS011;35514;50.504;30.500;2023-05-10T13:34:57;4.05;;;1.80;;
35839;SDS011;35514;50.504;30.500;2023-05-10T13:37:26;4.40;;;1.50;;
35839;SDS011;35514;50.504;30.500;2023-05-10T13:39:53;6.18;;;4.05;;
35839;SDS011;35514;50.504;30.500;2023-05-10T13:42:21;2.08;;;1.48;;
35839;SDS011;35514;50.504;30.500;2023-05-10T13:44:49;4.05;;;2.10;;
35839;SDS011;35514;50.504;30.500;2023-05-10T13:47:16;5.03;;;1.58;;
35839;SDS011;35514;50.504;30.500;2023-05-10T13:49:44;2.85;;;1.73;;
35839;SDS011;35514;50.504;30.500;2023-05-10T13:52:11;3.75;;;2.05;;
35839;SDS011;35514;50.504;30.500;2023-05-10T13:54:41;2.80;;;1.42;;
35839;SDS011;35514;50.504;30.500;2023-05-10T13:57:09;3.63;;;1.63;;
35839;SDS011;35514;50.504;30.500;2023-05-10T13:59:38;4.47;;;1.50;;
35839;SDS011;35514;50.504;30.500;2023-05-10T14:02:06;3.65;;;1.60;;
35839;SDS011;35514;50.504;30.500;2023-05-10T14:04:34;3.92;;;1.88;;
35839;SDS011;35514;50.504;30.500;2023-05-10T14:07:02;4.55;;;1.85;;
35839;SDS011;35514;50.504;30.500;2023-05-10T14:09:30;4.57;;;1.60;;
35839;SDS011;35514;50.504;30.500;2023-05-10T14:11:59;2.42;;;1.45;;
35839;SDS011;35514;50.504;30.500;2023-05-10T14:14:28;2.47;;;1.08;;
35839;SDS011;35514;50.504;30.500;2023-05-10T14:16:56;2.33;;;1.10;;
35839;SDS011;35514;50.504;30.500;2023-05-10T14:19:25;6.53;;;1.10;;
35839;SDS011;35514;50.504;30.500;2023-05-10T14:21:54;6.35;;;1.40;;
35839;SDS011;35514;50.504;30.500;2023-05-10T14:24:21;6.25;;;1.38;;
35839;SDS011;35514;50.504;30.500;2023-05-10T14:26:49;6.57;;;1.27;;
35839;SDS011;35514;50.504;30.500;2023-05-10T14:29:24;3.63;;;1.40;;
35839;SDS011;35514;50.504;30.500;2023-05-10T14:31:52;2.30;;;1.50;;
35839;SDS011;35514;50.504;30.500;2023-05-10T14:34:20;3.70;;;1.60;;
35839;SDS011;35514;50.504;30.500;2023-05-10T14:36:47;3.25;;;1.17;;
35839;SDS011;35514;50.504;30.500;2023-05-10T14:39:16;3.45;;;1.20;;
35839;SDS011;35514;50.504;30.500;2023-05-10T14:41:43;5.05;;;1.42;;
35839;SDS011;35514;50.504;30.500;2023-05-10T14:44:12;5.00;;;1.70;;
35839;SDS011;35514;50.504;30.500;2023-05-10T14:46:41;1.77;;;1.05;;
35839;SDS011;35514;50.504;30.500;2023-05-10T14:49:09;2.03;;;1.25;;
35839;SDS011;35514;50.504;30.500;2023-05-10T14:51:36;2.20;;;1.30;;